createdAt,value
2018-10-05T00:00:25.789Z,13.52
2018-10-05T00:02:53.924Z,13.46
2018-10-05T00:05:22.113Z,13.50
2018-10-05T00:07:50.274Z,13.54
2018-10-05T00:10:18.376Z,13.56
2018-10-05T00:12:46.528Z,13.55
2018-10-05T00:15:14.624Z,13.53
2018-10-05T00:17:42.736Z,13.56
2018-10-05T00:20:10.845Z,13.56
2018-10-05T00:22:38.948Z,13.45
2018-10-05T00:25:07.033Z,13.50
2018-10-05T00:27:35.169Z,13.54
2018-10-05T00:30:04.324Z,13.58
2018-10-05T00:32:32.594Z,13.54
2018-10-05T00:35:00.625Z,13.52
2018-10-05T00:37:28.772Z,13.50
2018-10-05T00:39:56.888Z,13.47
2018-10-05T00:42:25.049Z,13.59
2018-10-05T00:44:53.170Z,13.54
2018-10-05T00:47:21.316Z,13.56
2018-10-05T00:49:49.460Z,13.51
2018-10-05T00:52:17.588Z,13.52
2018-10-05T00:54:45.705Z,13.58
2018-10-05T00:57:13.890Z,13.58
2018-10-05T00:59:42.279Z,13.53
2018-10-05T01:02:10.408Z,13.62
2018-10-05T01:04:38.659Z,13.63
2018-10-05T01:07:06.836Z,13.62
2018-10-05T01:09:34.922Z,13.64
2018-10-05T01:12:03.264Z,13.64
2018-10-05T01:14:31.416Z,13.60
2018-10-05T01:16:59.565Z,13.66
2018-10-05T01:19:27.697Z,13.62
2018-10-05T01:21:55.799Z,13.61
2018-10-05T01:24:23.911Z,13.57
2018-10-05T01:26:52.037Z,13.58
2018-10-05T01:29:20.172Z,13.54
2018-10-05T01:31:48.491Z,13.52
2018-10-05T01:34:16.652Z,13.47
2018-10-05T01:36:44.756Z,13.52
2018-10-05T01:39:12.872Z,13.48
2018-10-05T01:41:41.034Z,13.40
2018-10-05T01:44:09.173Z,13.43
2018-10-05T01:46:37.290Z,13.35
2018-10-05T01:49:05.401Z,13.37
2018-10-05T01:51:37.383Z,13.38
2018-10-05T01:54:06.190Z,13.24
2018-10-05T01:56:34.984Z,13.24
2018-10-05T01:59:03.271Z,13.18
2018-10-05T02:01:31.847Z,13.08
2018-10-05T02:03:59.996Z,12.99
2018-10-05T02:06:28.189Z,12.97
2018-10-05T02:08:56.292Z,13.02
2018-10-05T02:11:24.408Z,13.01
2018-10-05T02:13:52.518Z,12.95
2018-10-05T02:16:20.624Z,12.94
2018-10-05T02:18:48.741Z,12.86
2018-10-05T02:21:16.845Z,12.87
2018-10-05T02:23:45.241Z,12.75
2018-10-05T02:26:13.384Z,12.80
2018-10-05T02:28:41.485Z,12.73
2018-10-05T02:31:09.618Z,12.71
2018-10-05T02:33:37.742Z,12.69
2018-10-05T02:36:06.384Z,12.57
2018-10-05T02:38:34.512Z,12.50
2018-10-05T02:41:03.144Z,12.40
2018-10-05T02:43:31.261Z,12.26
2018-10-05T02:45:59.361Z,12.29
2018-10-05T02:48:27.481Z,12.27
2018-10-05T02:50:55.598Z,12.27
2018-10-05T02:53:23.713Z,12.32
2018-10-05T02:55:51.837Z,12.23
2018-10-05T02:58:20.073Z,12.15
2018-10-05T03:00:59.737Z,12.10
2018-10-05T03:03:27.868Z,12.07
2018-10-05T03:05:56.046Z,12.02
2018-10-05T03:08:24.150Z,11.98
2018-10-05T03:10:52.259Z,11.97
2018-10-05T03:13:20.404Z,11.82
2018-10-05T03:15:48.524Z,11.85
2018-10-05T03:18:16.639Z,11.75
2018-10-05T03:20:44.724Z,11.81
2018-10-05T03:23:12.820Z,11.82
2018-10-05T03:25:40.950Z,11.73
2018-10-05T03:28:09.052Z,11.66
2018-10-05T03:30:37.195Z,11.64
2018-10-05T03:33:05.343Z,11.60
2018-10-05T03:35:33.465Z,11.63
2018-10-05T03:38:01.564Z,11.64
2018-10-05T03:40:29.696Z,11.64
2018-10-05T03:42:57.801Z,11.65
2018-10-05T03:45:25.900Z,11.58
2018-10-05T03:47:54.037Z,11.52
2018-10-05T03:50:22.129Z,11.54
2018-10-05T03:52:50.199Z,11.50
2018-10-05T03:55:18.340Z,11.48
2018-10-05T03:57:46.459Z,11.43
2018-10-05T04:00:14.773Z,11.47
2018-10-05T04:02:42.998Z,11.40
2018-10-05T04:05:11.265Z,11.36
2018-10-05T04:07:39.436Z,11.35
2018-10-05T04:10:07.598Z,11.33
2018-10-05T04:12:35.780Z,11.32
2018-10-05T04:15:03.872Z,11.33
2018-10-05T04:17:31.977Z,11.29
2018-10-05T04:20:00.100Z,11.25
2018-10-05T04:22:30.571Z,11.11
2018-10-05T04:24:58.741Z,11.16
2018-10-05T04:27:26.970Z,11.13
2018-10-05T04:29:55.967Z,11.10
2018-10-05T04:32:24.073Z,11.03
2018-10-05T04:34:52.177Z,11.01
2018-10-05T04:37:20.347Z,11.05
2018-10-05T04:39:48.464Z,11.11
2018-10-05T04:42:16.584Z,11.04
2018-10-05T04:44:44.689Z,10.96
2018-10-05T04:47:13.080Z,11.02
2018-10-05T04:49:41.260Z,11.03
2018-10-05T04:52:09.372Z,11.06
2018-10-05T04:54:37.494Z,11.05
2018-10-05T04:57:05.627Z,11.07
2018-10-05T04:59:33.756Z,11.03
2018-10-05T05:02:02.052Z,11.05
2018-10-05T05:04:30.192Z,11.03
2018-10-05T05:06:58.512Z,10.98
2018-10-05T05:09:26.673Z,10.97
2018-10-05T05:11:54.783Z,10.99
2018-10-05T05:14:22.941Z,10.88
2018-10-05T05:16:51.042Z,10.92
2018-10-05T05:19:19.160Z,10.90
2018-10-05T05:21:47.304Z,10.92
2018-10-05T05:24:15.404Z,10.87
2018-10-05T05:26:43.553Z,10.90
2018-10-05T05:29:11.684Z,10.82
2018-10-05T05:31:39.796Z,10.80
2018-10-05T05:34:07.982Z,10.87
2018-10-05T05:36:36.100Z,10.92
2018-10-05T05:39:05.652Z,10.93
2018-10-05T05:41:33.765Z,10.85
2018-10-05T05:44:01.889Z,10.86
2018-10-05T05:46:30.000Z,10.81
2018-10-05T05:48:58.149Z,10.81
2018-10-05T05:51:26.344Z,10.81
2018-10-05T05:53:54.559Z,10.81
2018-10-05T05:56:22.640Z,10.87
2018-10-05T05:58:50.793Z,10.80
2018-10-05T06:01:18.931Z,10.81
2018-10-05T06:03:47.089Z,10.83
2018-10-05T06:06:15.222Z,10.82
2018-10-05T06:08:43.335Z,10.80
2018-10-05T06:11:11.481Z,10.84
2018-10-05T06:13:39.623Z,10.77
2018-10-05T06:16:07.776Z,10.76
2018-10-05T06:18:35.896Z,10.88
2018-10-05T06:21:04.025Z,10.88
2018-10-05T06:23:32.137Z,10.90
2018-10-05T06:26:00.267Z,10.97
2018-10-05T06:28:28.365Z,11.02
2018-10-05T06:30:56.641Z,11.06
2018-10-05T06:33:24.710Z,11.13
2018-10-05T06:35:52.753Z,11.19
2018-10-05T06:38:20.909Z,11.18
2018-10-05T06:40:49.049Z,11.20
2018-10-05T06:43:17.164Z,11.29
2018-10-05T06:45:45.278Z,11.48
2018-10-05T06:48:13.396Z,11.51
2018-10-05T06:50:41.550Z,11.63
2018-10-05T06:53:09.684Z,11.69
2018-10-05T06:55:37.787Z,11.66
2018-10-05T06:58:05.985Z,11.65
2018-10-05T07:00:34.124Z,11.76
2018-10-05T07:03:02.223Z,11.85
2018-10-05T07:05:30.351Z,12.03
2018-10-05T07:07:58.517Z,12.00
2018-10-05T07:10:26.645Z,12.13
2018-10-05T07:12:54.741Z,12.16
2018-10-05T07:15:22.857Z,12.18
2018-10-05T07:17:51.073Z,12.29
2018-10-05T07:20:19.200Z,12.46
2018-10-05T07:22:47.373Z,12.31
2018-10-05T07:25:15.504Z,12.27
2018-10-05T07:27:43.626Z,12.44
2018-10-05T07:30:11.721Z,12.51
2018-10-05T07:32:39.838Z,12.55
2018-10-05T07:35:07.985Z,12.66
2018-10-05T07:37:36.073Z,12.66
2018-10-05T07:40:04.168Z,12.82
2018-10-05T07:42:32.276Z,12.79
2018-10-05T07:45:00.408Z,12.87
2018-10-05T07:47:28.530Z,13.01
2018-10-05T07:49:56.659Z,12.94
2018-10-05T07:52:24.861Z,13.00
2018-10-05T07:54:52.968Z,13.10
2018-10-05T07:57:21.162Z,13.26
2018-10-05T07:59:49.217Z,13.31
2018-10-05T08:02:17.327Z,13.31
2018-10-05T08:04:45.425Z,13.34
2018-10-05T08:07:13.547Z,13.47
2018-10-05T08:09:41.718Z,13.51
2018-10-05T08:12:09.768Z,13.63
2018-10-05T08:14:37.924Z,13.55
2018-10-05T08:17:06.092Z,13.57
2018-10-05T08:19:34.224Z,13.69
2018-10-05T08:22:02.432Z,13.93
2018-10-05T08:24:30.585Z,13.95
2018-10-05T08:26:58.783Z,13.95
2018-10-05T08:29:26.885Z,14.14
2018-10-05T08:31:55.008Z,14.12
2018-10-05T08:34:23.149Z,14.26
2018-10-05T08:36:51.644Z,14.20
2018-10-05T08:39:19.757Z,14.17
2018-10-05T08:41:47.918Z,14.29
2018-10-05T08:44:16.061Z,14.43
2018-10-05T08:46:44.163Z,14.49
2018-10-05T08:49:12.317Z,14.65
2018-10-05T08:51:40.461Z,14.76
2018-10-05T08:54:08.763Z,15.13
2018-10-05T08:56:36.961Z,15.21
2018-10-05T08:59:05.112Z,15.39
2018-10-05T09:01:33.209Z,15.30
2018-10-05T09:04:01.336Z,15.36
2018-10-05T09:06:29.653Z,15.36
2018-10-05T09:08:57.797Z,15.31
2018-10-05T09:11:25.946Z,15.52
2018-10-05T09:13:54.199Z,15.60
2018-10-05T09:16:22.255Z,15.63
2018-10-05T09:18:50.368Z,15.68
2018-10-05T09:21:18.478Z,15.81
2018-10-05T09:23:46.609Z,16.01
2018-10-05T09:26:14.733Z,15.78
2018-10-05T09:28:42.881Z,15.87
2018-10-05T09:31:11.004Z,16.02
2018-10-05T09:33:39.100Z,16.21
2018-10-05T09:36:07.213Z,16.09
2018-10-05T09:38:35.344Z,16.20
2018-10-05T09:41:03.445Z,16.16
2018-10-05T09:43:31.572Z,16.38
2018-10-05T09:45:59.665Z,16.47
2018-10-05T09:48:27.757Z,16.46
2018-10-05T09:50:55.857Z,16.48
2018-10-05T09:53:23.980Z,16.37
2018-10-05T09:55:52.118Z,16.36
2018-10-05T09:58:20.269Z,16.63
2018-10-05T10:00:53.857Z,16.89
2018-10-05T10:03:37.023Z,16.54
2018-10-05T10:06:05.950Z,16.56
2018-10-05T10:08:34.071Z,16.97
2018-10-05T10:11:02.169Z,17.06
2018-10-05T10:13:30.289Z,17.35
2018-10-05T10:15:58.433Z,17.10
2018-10-05T10:18:26.514Z,17.11
2018-10-05T10:20:54.621Z,17.20
2018-10-05T10:23:22.865Z,17.23
2018-10-05T10:25:50.813Z,17.38
2018-10-05T10:28:18.983Z,17.39
2018-10-05T10:30:47.024Z,17.28
2018-10-05T10:33:15.116Z,17.46
2018-10-05T10:35:43.228Z,17.33
2018-10-05T10:38:11.360Z,17.61
2018-10-05T10:40:39.468Z,17.42
2018-10-05T10:43:07.802Z,17.20
2018-10-05T10:45:36.027Z,17.18
2018-10-05T10:48:04.197Z,17.45
2018-10-05T10:50:32.269Z,17.64
2018-10-05T10:53:00.453Z,17.70
2018-10-05T10:55:28.532Z,17.83
2018-10-05T10:57:56.693Z,18.10
2018-10-05T11:00:24.808Z,17.98
2018-10-05T11:02:52.937Z,18.28
2018-10-05T11:05:21.064Z,18.07
2018-10-05T11:07:49.175Z,18.03
2018-10-05T11:10:17.331Z,18.06
2018-10-05T11:12:45.470Z,18.25
2018-10-05T11:15:13.584Z,18.19
2018-10-05T11:17:41.756Z,18.24
2018-10-05T11:20:09.868Z,18.13
2018-10-05T11:22:37.957Z,18.35
2018-10-05T11:25:06.068Z,18.50
2018-10-05T11:27:34.197Z,18.52
2018-10-05T11:30:02.374Z,18.54
2018-10-05T11:32:30.496Z,18.51
2018-10-05T11:34:58.674Z,18.91
2018-10-05T11:37:26.731Z,18.85
2018-10-05T11:39:54.869Z,18.93
2018-10-05T11:42:22.997Z,19.01
2018-10-05T11:44:51.103Z,19.19
2018-10-05T11:47:19.224Z,19.22
2018-10-05T11:49:47.321Z,19.38
2018-10-05T11:52:15.481Z,19.39
2018-10-05T11:54:43.821Z,19.52
2018-10-05T11:57:11.964Z,19.49
2018-10-05T11:59:40.130Z,19.46
2018-10-05T12:02:08.218Z,19.24
2018-10-05T12:04:36.376Z,19.39
2018-10-05T12:07:04.516Z,19.19
2018-10-05T12:09:32.644Z,19.44
2018-10-05T12:12:00.784Z,19.39
2018-10-05T12:14:28.910Z,19.62
2018-10-05T12:16:57.032Z,19.56
2018-10-05T12:19:25.145Z,19.63
2018-10-05T12:21:53.294Z,19.62
2018-10-05T12:24:21.402Z,19.74
2018-10-05T12:26:49.509Z,19.88
2018-10-05T12:29:17.676Z,19.91
2018-10-05T12:31:45.794Z,19.96
2018-10-05T12:34:13.901Z,19.92
2018-10-05T12:36:42.024Z,19.88
2018-10-05T12:39:10.152Z,19.93
2018-10-05T12:41:38.769Z,20.17
2018-10-05T12:44:07.460Z,20.40
2018-10-05T12:46:35.960Z,20.47
2018-10-05T12:49:04.073Z,20.52
2018-10-05T12:51:32.203Z,20.38
2018-10-05T12:54:00.314Z,20.45
2018-10-05T12:56:28.551Z,20.43
2018-10-05T12:58:56.641Z,20.28
2018-10-05T13:01:24.795Z,20.31
2018-10-05T13:03:52.924Z,20.15
2018-10-05T13:06:21.061Z,20.35
2018-10-05T13:08:49.181Z,20.42
2018-10-05T13:11:17.289Z,20.53
2018-10-05T13:13:45.405Z,20.52
2018-10-05T13:16:13.553Z,20.60
2018-10-05T13:18:41.683Z,20.53
2018-10-05T13:21:09.774Z,20.52
2018-10-05T13:28:35.550Z,20.37
2018-10-05T13:31:03.662Z,20.38
2018-10-05T13:33:31.857Z,20.24
2018-10-05T13:35:59.989Z,20.39
2018-10-05T13:38:28.101Z,20.45
2018-10-05T13:40:56.221Z,20.41
2018-10-05T13:43:25.007Z,20.32
2018-10-05T13:45:53.210Z,20.40
2018-10-05T13:48:21.520Z,20.42
2018-10-05T13:50:49.650Z,20.42
2018-10-05T13:53:17.812Z,20.39
2018-10-05T13:55:45.958Z,20.40
2018-10-05T13:58:14.135Z,20.31
2018-10-05T14:00:42.304Z,20.32
2018-10-05T14:03:10.472Z,20.40
2018-10-05T14:05:38.628Z,20.40
2018-10-05T14:08:06.769Z,20.36
2018-10-05T14:10:35.010Z,20.42
2018-10-05T14:13:03.060Z,20.23
2018-10-05T14:15:31.224Z,20.35
2018-10-05T14:17:59.410Z,20.35
2018-10-05T14:20:27.572Z,20.28
2018-10-05T14:22:55.885Z,20.38
2018-10-05T14:25:24.174Z,20.43
2018-10-05T14:27:52.308Z,20.30
2018-10-05T14:30:20.460Z,20.28
2018-10-05T14:32:48.605Z,20.35
2018-10-05T14:35:16.732Z,20.33
2018-10-05T14:37:44.865Z,20.32
2018-10-05T14:40:12.963Z,20.15
2018-10-05T14:42:41.069Z,20.27
2018-10-05T14:45:09.215Z,20.07
2018-10-05T14:47:37.337Z,20.09
2018-10-05T14:50:05.479Z,20.15
2018-10-05T14:52:33.590Z,20.19
2018-10-05T14:55:01.744Z,20.19
2018-10-05T14:57:29.948Z,20.07
2018-10-05T14:59:58.088Z,19.77
2018-10-05T15:02:26.181Z,19.84
2018-10-05T15:04:54.332Z,19.78
2018-10-05T15:07:22.468Z,19.83
2018-10-05T15:09:50.587Z,19.76
2018-10-05T15:12:18.719Z,19.83
2018-10-05T15:14:46.840Z,19.89
2018-10-05T15:17:14.989Z,19.71
2018-10-05T15:19:43.093Z,19.79
2018-10-05T15:22:11.284Z,19.84
2018-10-05T15:24:39.630Z,19.74
2018-10-05T15:27:08.233Z,19.66
2018-10-05T15:29:36.344Z,19.62
2018-10-05T15:32:05.009Z,19.61
2018-10-05T15:34:33.527Z,19.63
2018-10-05T15:37:01.853Z,19.52
2018-10-05T15:39:30.796Z,19.54
2018-10-05T15:41:59.020Z,19.48
2018-10-05T15:44:27.333Z,19.46
2018-10-05T15:46:58.474Z,19.37
2018-10-05T15:49:26.756Z,19.27
2018-10-05T15:51:54.993Z,19.25
2018-10-05T15:54:23.157Z,19.33
2018-10-05T15:56:51.710Z,19.37
2018-10-05T15:59:19.889Z,19.37
2018-10-05T16:01:48.065Z,19.13
2018-10-05T16:04:16.673Z,18.99
2018-10-05T16:06:44.968Z,18.97
2018-10-05T16:09:13.203Z,18.88
2018-10-05T16:11:41.433Z,18.93
2018-10-05T16:14:09.845Z,18.78
2018-10-05T16:16:38.173Z,18.69
2018-10-05T16:19:06.946Z,18.55
2018-10-05T16:21:36.008Z,18.45
2018-10-05T16:24:06.802Z,18.24
2018-10-05T16:26:34.989Z,18.15
2018-10-05T16:29:03.196Z,18.11
2018-10-05T16:31:31.357Z,18.06
2018-10-05T16:33:59.508Z,17.93
2018-10-05T16:36:27.605Z,17.86
2018-10-05T16:38:55.696Z,17.80
2018-10-05T16:41:23.813Z,17.69
2018-10-05T16:43:52.045Z,17.53
2018-10-05T16:46:20.287Z,17.45
2018-10-05T16:48:48.440Z,17.25
2018-10-05T16:51:16.576Z,17.11
2018-10-05T16:53:44.717Z,16.95
2018-10-05T16:56:12.846Z,16.86
2018-10-05T16:58:40.974Z,16.81
2018-10-05T17:01:09.123Z,16.78
2018-10-05T17:03:37.252Z,16.57
2018-10-05T17:06:05.349Z,16.42
2018-10-05T17:08:36.052Z,16.31
2018-10-05T17:11:04.229Z,16.20
2018-10-05T17:13:32.385Z,16.08
2018-10-05T17:16:00.513Z,16.07
2018-10-05T17:18:28.621Z,16.02
2018-10-05T17:20:56.713Z,15.96
2018-10-05T17:23:24.872Z,15.89
2018-10-05T17:25:52.932Z,15.85
2018-10-05T17:28:21.077Z,15.79
2018-10-05T17:30:49.257Z,15.72
2018-10-05T17:33:17.380Z,15.66
2018-10-05T17:35:45.572Z,15.58
2018-10-05T17:38:13.705Z,15.41
2018-10-05T17:40:41.805Z,15.32
2018-10-05T17:43:09.924Z,15.21
2018-10-05T17:45:38.050Z,15.13
2018-10-05T17:48:06.521Z,14.99
2018-10-05T17:50:34.672Z,14.93
2018-10-05T17:53:02.765Z,14.94
2018-10-05T17:55:30.994Z,14.72
2018-10-05T17:57:59.033Z,14.73
2018-10-05T18:00:27.171Z,14.71
2018-10-05T18:02:55.352Z,14.58
2018-10-05T18:05:23.661Z,14.54
2018-10-05T18:07:51.955Z,14.61
2018-10-05T18:10:20.849Z,14.59
2018-10-05T18:12:49.192Z,14.60
2018-10-05T18:15:17.702Z,14.62
2018-10-05T18:17:45.824Z,14.62
2018-10-05T18:20:13.986Z,14.51
2018-10-05T18:22:42.089Z,14.51
2018-10-05T18:25:10.226Z,14.42
2018-10-05T18:27:38.380Z,14.29
2018-10-05T18:30:06.552Z,14.25
2018-10-05T18:32:34.666Z,14.26
2018-10-05T18:35:02.793Z,14.25
2018-10-05T18:37:30.958Z,14.14
2018-10-05T18:39:59.064Z,14.05
2018-10-05T18:42:27.184Z,13.99
2018-10-05T18:44:55.296Z,13.95
2018-10-05T18:47:23.426Z,13.89
2018-10-05T18:49:51.564Z,13.87
2018-10-05T18:52:19.672Z,13.75
2018-10-05T18:54:47.781Z,13.74
2018-10-05T18:57:19.761Z,13.70
2018-10-05T18:59:47.853Z,13.64
2018-10-05T19:02:16.728Z,13.57
2018-10-05T19:04:45.500Z,13.49
2018-10-05T19:07:13.585Z,13.46
2018-10-05T19:09:41.724Z,13.48
2018-10-05T19:12:09.938Z,13.47
2018-10-05T19:14:38.048Z,13.51
2018-10-05T19:17:06.201Z,13.45
2018-10-05T19:19:34.594Z,13.32
2018-10-05T19:22:02.724Z,13.35
2018-10-05T19:24:30.965Z,13.30
2018-10-05T19:26:59.151Z,13.35
2018-10-05T19:29:27.733Z,13.37
2018-10-05T19:31:55.876Z,13.31
2018-10-05T19:34:24.001Z,13.29
2018-10-05T19:36:52.109Z,13.27
2018-10-05T19:39:20.210Z,13.20
2018-10-05T19:41:48.318Z,13.11
2018-10-05T19:44:16.404Z,13.14
2018-10-05T19:46:44.495Z,13.19
2018-10-05T19:49:12.581Z,13.26
2018-10-05T19:51:40.668Z,13.26
2018-10-05T19:54:08.781Z,13.10
2018-10-05T19:56:36.898Z,13.07
2018-10-05T19:59:05.008Z,13.05
2018-10-05T20:01:33.138Z,13.02
2018-10-05T20:04:01.284Z,13.03
2018-10-05T20:06:29.483Z,13.01
2018-10-05T20:08:57.548Z,12.96
2018-10-05T20:11:25.695Z,12.94
2018-10-05T20:13:54.006Z,12.85
2018-10-05T20:16:22.118Z,12.94
2018-10-05T20:18:50.240Z,12.94
2018-10-05T20:21:18.340Z,12.94
2018-10-05T20:23:46.442Z,12.86
2018-10-05T20:26:14.553Z,12.89
2018-10-05T20:28:42.664Z,12.79
2018-10-05T20:31:10.772Z,12.71
2018-10-05T20:33:38.869Z,12.68
2018-10-05T20:36:07.068Z,12.67
2018-10-05T20:38:35.156Z,12.64
2018-10-05T20:41:03.157Z,12.57
2018-10-05T20:43:31.279Z,12.60
2018-10-05T20:45:59.396Z,12.55
2018-10-05T20:48:27.553Z,12.52
2018-10-05T20:50:55.664Z,12.57
2018-10-05T20:53:23.804Z,12.49
2018-10-05T20:55:51.936Z,12.52
2018-10-05T20:58:20.066Z,12.53
2018-10-05T21:00:48.187Z,12.62
2018-10-05T21:03:16.307Z,12.70
2018-10-05T21:05:44.424Z,12.60
2018-10-05T21:08:12.544Z,12.70
2018-10-05T21:10:40.746Z,12.61
2018-10-05T21:13:12.103Z,12.56
2018-10-05T21:15:40.231Z,12.49
2018-10-05T21:18:08.428Z,12.51
2018-10-05T21:20:36.533Z,12.67
2018-10-05T21:23:04.912Z,12.77
2018-10-05T21:25:33.026Z,12.69
2018-10-05T21:28:01.136Z,12.78
2018-10-05T21:30:29.242Z,12.70
2018-10-05T21:32:57.478Z,12.79
2018-10-05T21:35:25.568Z,12.76
2018-10-05T21:37:53.644Z,12.62
2018-10-05T21:40:21.820Z,12.39
2018-10-05T21:42:49.948Z,12.36
2018-10-05T21:45:18.061Z,12.30
2018-10-05T21:47:46.204Z,12.25
2018-10-05T21:50:14.317Z,12.22
2018-10-05T21:52:42.449Z,12.25
2018-10-05T21:55:10.617Z,12.18
2018-10-05T21:57:38.732Z,12.17
2018-10-05T22:00:06.820Z,12.08
2018-10-05T22:02:35.665Z,11.99
2018-10-05T22:05:04.545Z,11.91
2018-10-05T22:07:32.653Z,11.79
2018-10-05T22:10:00.905Z,11.70
2018-10-05T22:12:29.496Z,11.71
2018-10-05T22:14:57.593Z,11.59
2018-10-05T22:17:25.784Z,11.56
2018-10-05T22:19:53.953Z,11.54
2018-10-05T22:22:22.011Z,11.52
2018-10-05T22:24:50.121Z,11.52
2018-10-05T22:27:18.241Z,11.43
2018-10-05T22:29:46.335Z,11.38
2018-10-05T22:32:14.453Z,11.35
2018-10-05T22:34:42.600Z,11.27
2018-10-05T22:37:10.716Z,11.26
2018-10-05T22:39:38.829Z,11.22
2018-10-05T22:42:06.940Z,11.18
2018-10-05T22:44:35.101Z,11.21
2018-10-05T22:47:03.425Z,11.21
2018-10-05T22:49:31.509Z,11.23
2018-10-05T22:51:59.665Z,11.26
2018-10-05T22:54:27.776Z,11.22
2018-10-05T22:56:55.865Z,11.24
2018-10-05T22:59:23.981Z,11.14
2018-10-05T23:01:52.116Z,11.08
2018-10-05T23:04:20.210Z,11.08
2018-10-05T23:06:48.325Z,11.04
2018-10-05T23:09:16.456Z,11.01
2018-10-05T23:11:44.577Z,11.05
2018-10-05T23:14:13.088Z,11.03
2018-10-05T23:16:41.224Z,11.04
2018-10-05T23:19:09.332Z,11.03
2018-10-05T23:21:37.475Z,10.98
2018-10-05T23:24:05.587Z,10.97
2018-10-05T23:26:33.728Z,10.96
2018-10-05T23:29:01.818Z,10.97
2018-10-05T23:31:29.947Z,10.97
2018-10-05T23:33:58.077Z,10.97
2018-10-05T23:36:26.188Z,10.95
2018-10-05T23:38:54.300Z,10.93
2018-10-05T23:41:22.463Z,10.93
2018-10-05T23:43:50.564Z,10.86
2018-10-05T23:46:18.717Z,10.85
2018-10-05T23:48:46.837Z,10.92
2018-10-05T23:51:14.941Z,10.90
2018-10-05T23:53:43.341Z,10.82
2018-10-05T23:56:11.436Z,10.82
2018-10-05T23:58:39.570Z,10.90
